sensor_id;sensor_type;location;lat;lon;timestamp;P1;durP1;ratioP1;P2;durP2;ratioP2
48263;SDS011;34086;51.076;13.722;2024-01-30T00:00:37;51.00;;;28.60;;
48263;SDS011;34086;51.076;13.722;2024-01-30T00:01:37;50.53;;;27.92;;
48263;SDS011;34086;51.076;13.722;2024-01-30T00:02:38;50.22;;;28.33;;
48263;SDS011;34086;51.076;13.722;2024-01-30T00:03:38;51.80;;;28.75;;
48263;SDS011;34086;51.076;13.722;2024-01-30T00:04:39;52.33;;;28.52;;
48263;SDS011;34086;51.076;13.722;2024-01-30T00:05:39;49.72;;;28.98;;
48263;SDS011;34086;51.076;13.722;2024-01-30T00:06:40;50.58;;;28.30;;
48263;SDS011;34086;51.076;13.722;2024-01-30T00:07:40;49.35;;;29.25;;
48263;SDS011;34086;51.076;13.722;2024-01-30T00:08:41;47.58;;;27.85;;
48263;SDS011;34086;51.076;13.722;2024-01-30T00:09:41;51.58;;;28.77;;
48263;SDS011;34086;51.076;13.722;2024-01-30T00:10:42;47.88;;;28.38;;
48263;SDS011;34086;51.076;13.722;2024-01-30T00:11:43;49.72;;;28.50;;
48263;SDS011;34086;51.076;13.722;2024-01-30T00:12:43;50.15;;;27.85;;
48263;SDS011;34086;51.076;13.722;2024-01-30T00:13:44;51.08;;;27.80;;
48263;SDS011;34086;51.076;13.722;2024-01-30T00:14:45;51.47;;;28.02;;
48263;SDS011;34086;51.076;13.722;2024-01-30T00:15:45;47.92;;;27.25;;
48263;SDS011;34086;51.076;13.722;2024-01-30T00:16:46;47.92;;;27.25;;
48263;SDS011;34086;51.076;13.722;2024-01-30T00:17:46;48.60;;;27.27;;
48263;SDS011;34086;51.076;13.722;2024-01-30T00:18:47;52.55;;;27.65;;
48263;SDS011;34086;51.076;13.722;2024-01-30T00:19:48;52.70;;;28.52;;
48263;SDS011;34086;51.076;13.722;2024-01-30T00:20:49;50.78;;;27.27;;
48263;SDS011;34086;51.076;13.722;2024-01-30T00:21:49;44.80;;;26.92;;
48263;SDS011;34086;51.076;13.722;2024-01-30T00:22:50;48.03;;;27.15;;
48263;SDS011;34086;51.076;13.722;2024-01-30T00:23:50;47.45;;;26.90;;
48263;SDS011;34086;51.076;13.722;2024-01-30T00:24:51;47.30;;;27.55;;
48263;SDS011;34086;51.076;13.722;2024-01-30T00:25:51;45.22;;;26.73;;
48263;SDS011;34086;51.076;13.722;2024-01-30T00:26:52;48.88;;;26.73;;
48263;SDS011;34086;51.076;13.722;2024-01-30T00:27:52;50.10;;;27.20;;
48263;SDS011;34086;51.076;13.722;2024-01-30T00:28:53;46.33;;;27.73;;
48263;SDS011;34086;51.076;13.722;2024-01-30T00:29:53;46.35;;;26.75;;
48263;SDS011;34086;51.076;13.722;2024-01-30T00:30:54;46.85;;;27.10;;
48263;SDS011;34086;51.076;13.722;2024-01-30T00:31:54;46.00;;;27.55;;
48263;SDS011;34086;51.076;13.722;2024-01-30T00:32:55;46.58;;;26.77;;
48263;SDS011;34086;51.076;13.722;2024-01-30T00:33:56;47.65;;;27.70;;
48263;SDS011;34086;51.076;13.722;2024-01-30T00:34:56;46.33;;;26.70;;
48263;SDS011;34086;51.076;13.722;2024-01-30T00:35:57;48.72;;;27.77;;
48263;SDS011;34086;51.076;13.722;2024-01-30T00:36:57;49.38;;;27.63;;
48263;SDS011;34086;51.076;13.722;2024-01-30T00:37:58;54.88;;;28.48;;
48263;SDS011;34086;51.076;13.722;2024-01-30T00:38:58;49.20;;;26.80;;
48263;SDS011;34086;51.076;13.722;2024-01-30T00:39:59;47.78;;;26.73;;
48263;SDS011;34086;51.076;13.722;2024-01-30T00:40:59;49.97;;;27.60;;
48263;SDS011;34086;51.076;13.722;2024-01-30T00:42:00;49.78;;;27.42;;
48263;SDS011;34086;51.076;13.722;2024-01-30T00:43:00;46.95;;;27.13;;
48263;SDS011;34086;51.076;13.722;2024-01-30T00:44:01;47.00;;;27.05;;
48263;SDS011;34086;51.076;13.722;2024-01-30T00:45:01;47.53;;;27.38;;
48263;SDS011;34086;51.076;13.722;2024-01-30T00:46:02;47.65;;;27.85;;
48263;SDS011;34086;51.076;13.722;2024-01-30T00:47:03;51.33;;;28.42;;
48263;SDS011;34086;51.076;13.722;2024-01-30T00:48:04;49.65;;;27.23;;
48263;SDS011;34086;51.076;13.722;2024-01-30T00:49:05;50.67;;;27.40;;
48263;SDS011;34086;51.076;13.722;2024-01-30T00:50:05;48.55;;;28.05;;
48263;SDS011;34086;51.076;13.722;2024-01-30T00:51:06;46.78;;;26.48;;
48263;SDS011;34086;51.076;13.722;2024-01-30T00:52:07;45.30;;;27.40;;
48263;SDS011;34086;51.076;13.722;2024-01-30T00:53:07;47.88;;;26.67;;
48263;SDS011;34086;51.076;13.722;2024-01-30T00:54:08;48.90;;;27.88;;
48263;SDS011;34086;51.076;13.722;2024-01-30T00:55:08;47.15;;;27.25;;
48263;SDS011;34086;51.076;13.722;2024-01-30T00:56:09;46.80;;;27.15;;
48263;SDS011;34086;51.076;13.722;2024-01-30T00:57:09;46.60;;;26.85;;
48263;SDS011;34086;51.076;13.722;2024-01-30T00:58:10;45.05;;;27.30;;
48263;SDS011;34086;51.076;13.722;2024-01-30T00:59:11;51.70;;;27.88;;
48263;SDS011;34086;51.076;13.722;2024-01-30T01:00:11;48.05;;;27.83;;
48263;SDS011;34086;51.076;13.722;2024-01-30T01:01:13;50.70;;;27.92;;
48263;SDS011;34086;51.076;13.722;2024-01-30T01:02:14;47.13;;;27.08;;
48263;SDS011;34086;51.076;13.722;2024-01-30T01:03:17;49.28;;;27.50;;
48263;SDS011;34086;51.076;13.722;2024-01-30T01:04:17;45.75;;;27.45;;
48263;SDS011;34086;51.076;13.722;2024-01-30T01:05:18;48.95;;;27.67;;
48263;SDS011;34086;51.076;13.722;2024-01-30T01:06:18;47.65;;;26.63;;
48263;SDS011;34086;51.076;13.722;2024-01-30T01:07:19;46.00;;;26.70;;
48263;SDS011;34086;51.076;13.722;2024-01-30T01:08:20;46.78;;;26.35;;
48263;SDS011;34086;51.076;13.722;2024-01-30T01:09:20;49.60;;;27.80;;
48263;SDS011;34086;51.076;13.722;2024-01-30T01:10:21;46.30;;;26.75;;
48263;SDS011;34086;51.076;13.722;2024-01-30T01:11:22;45.30;;;26.88;;
48263;SDS011;34086;51.076;13.722;2024-01-30T01:12:23;43.70;;;25.67;;
48263;SDS011;34086;51.076;13.722;2024-01-30T01:13:23;45.15;;;26.35;;
48263;SDS011;34086;51.076;13.722;2024-01-30T01:14:24;50.20;;;27.58;;
48263;SDS011;34086;51.076;13.722;2024-01-30T01:15:25;45.65;;;25.85;;
48263;SDS011;34086;51.076;13.722;2024-01-30T01:16:25;46.05;;;26.10;;
48263;SDS011;34086;51.076;13.722;2024-01-30T01:17:26;46.85;;;26.55;;
48263;SDS011;34086;51.076;13.722;2024-01-30T01:18:27;43.83;;;25.50;;
48263;SDS011;34086;51.076;13.722;2024-01-30T01:19:27;46.22;;;26.33;;
48263;SDS011;34086;51.076;13.722;2024-01-30T01:20:28;49.15;;;26.83;;
48263;SDS011;34086;51.076;13.722;2024-01-30T01:21:28;44.38;;;25.38;;
48263;SDS011;34086;51.076;13.722;2024-01-30T01:22:29;45.72;;;26.23;;
48263;SDS011;34086;51.076;13.722;2024-01-30T01:23:30;45.78;;;26.02;;
48263;SDS011;34086;51.076;13.722;2024-01-30T01:24:33;46.38;;;26.73;;
48263;SDS011;34086;51.076;13.722;2024-01-30T01:25:34;43.97;;;26.15;;
48263;SDS011;34086;51.076;13.722;2024-01-30T01:26:34;48.03;;;26.90;;
48263;SDS011;34086;51.076;13.722;2024-01-30T01:27:35;42.08;;;25.83;;
48263;SDS011;34086;51.076;13.722;2024-01-30T01:28:40;46.45;;;26.75;;
48263;SDS011;34086;51.076;13.722;2024-01-30T01:29:41;44.05;;;25.80;;
48263;SDS011;34086;51.076;13.722;2024-01-30T01:30:42;47.85;;;26.58;;
48263;SDS011;34086;51.076;13.722;2024-01-30T01:31:42;43.85;;;26.00;;
48263;SDS011;34086;51.076;13.722;2024-01-30T01:32:46;46.78;;;26.73;;
48263;SDS011;34086;51.076;13.722;2024-01-30T01:33:54;43.65;;;25.17;;
48263;SDS011;34086;51.076;13.722;2024-01-30T01:34:55;44.25;;;25.80;;
48263;SDS011;34086;51.076;13.722;2024-01-30T01:35:55;45.40;;;26.15;;
48263;SDS011;34086;51.076;13.722;2024-01-30T01:36:56;45.55;;;26.05;;
48263;SDS011;34086;51.076;13.722;2024-01-30T01:37:57;43.67;;;24.85;;
48263;SDS011;34086;51.076;13.722;2024-01-30T01:38:59;43.15;;;25.40;;
48263;SDS011;34086;51.076;13.722;2024-01-30T01:40:00;41.90;;;25.50;;
48263;SDS011;34086;51.076;13.722;2024-01-30T01:41:00;48.88;;;25.45;;
48263;SDS011;34086;51.076;13.722;2024-01-30T01:42:01;46.15;;;25.92;;
48263;SDS011;34086;51.076;13.722;2024-01-30T01:43:03;45.40;;;25.23;;
48263;SDS011;34086;51.076;13.722;2024-01-30T01:44:05;43.88;;;25.73;;
48263;SDS011;34086;51.076;13.722;2024-01-30T01:45:05;41.03;;;24.55;;
48263;SDS011;34086;51.076;13.722;2024-01-30T01:46:06;46.30;;;25.05;;
48263;SDS011;34086;51.076;13.722;2024-01-30T01:47:08;41.38;;;25.08;;
48263;SDS011;34086;51.076;13.722;2024-01-30T01:48:09;42.58;;;24.88;;
48263;SDS011;34086;51.076;13.722;2024-01-30T01:49:10;46.53;;;26.08;;
48263;SDS011;34086;51.076;13.722;2024-01-30T01:50:12;42.45;;;24.42;;
48263;SDS011;34086;51.076;13.722;2024-01-30T01:51:14;45.13;;;25.55;;
48263;SDS011;34086;51.076;13.722;2024-01-30T01:52:15;44.55;;;25.42;;
48263;SDS011;34086;51.076;13.722;2024-01-30T01:53:17;45.10;;;25.63;;
48263;SDS011;34086;51.076;13.722;2024-01-30T01:54:17;44.05;;;25.55;;
48263;SDS011;34086;51.076;13.722;2024-01-30T01:55:19;44.22;;;25.42;;
48263;SDS011;34086;51.076;13.722;2024-01-30T01:56:24;44.88;;;25.70;;
48263;SDS011;34086;51.076;13.722;2024-01-30T01:57:25;45.53;;;24.73;;
48263;SDS011;34086;51.076;13.722;2024-01-30T01:58:26;45.80;;;25.73;;
48263;SDS011;34086;51.076;13.722;2024-01-30T01:59:28;42.47;;;24.85;;
48263;SDS011;34086;51.076;13.722;2024-01-30T02:00:29;44.33;;;25.67;;
48263;SDS011;34086;51.076;13.722;2024-01-30T02:01:31;46.58;;;26.55;;
48263;SDS011;34086;51.076;13.722;2024-01-30T02:02:34;45.38;;;25.45;;
48263;SDS011;34086;51.076;13.722;2024-01-30T02:03:36;45.50;;;26.60;;
48263;SDS011;34086;51.076;13.722;2024-01-30T02:04:36;42.20;;;25.70;;
48263;SDS011;34086;51.076;13.722;2024-01-30T02:05:37;44.05;;;25.85;;
48263;SDS011;34086;51.076;13.722;2024-01-30T02:06:39;44.90;;;25.55;;
48263;SDS011;34086;51.076;13.722;2024-01-30T02:07:39;42.90;;;25.10;;
48263;SDS011;34086;51.076;13.722;2024-01-30T02:08:41;43.65;;;25.42;;
48263;SDS011;34086;51.076;13.722;2024-01-30T02:09:42;44.75;;;26.00;;
48263;SDS011;34086;51.076;13.722;2024-01-30T02:10:43;45.22;;;26.50;;
48263;SDS011;34086;51.076;13.722;2024-01-30T02:11:44;46.88;;;25.20;;
48263;SDS011;34086;51.076;13.722;2024-01-30T02:12:44;44.03;;;25.38;;
48263;SDS011;34086;51.076;13.722;2024-01-30T02:13:45;44.67;;;26.05;;
48263;SDS011;34086;51.076;13.722;2024-01-30T02:14:46;44.63;;;25.98;;
48263;SDS011;34086;51.076;13.722;2024-01-30T02:15:53;43.60;;;25.13;;
48263;SDS011;34086;51.076;13.722;2024-01-30T02:16:54;46.65;;;25.38;;
48263;SDS011;34086;51.076;13.722;2024-01-30T02:17:54;42.90;;;25.25;;
48263;SDS011;34086;51.076;13.722;2024-01-30T02:18:55;45.42;;;26.02;;
48263;SDS011;34086;51.076;13.722;2024-01-30T02:19:55;46.20;;;25.67;;
48263;SDS011;34086;51.076;13.722;2024-01-30T02:20:56;44.15;;;25.30;;
48263;SDS011;34086;51.076;13.722;2024-01-30T02:22:01;44.05;;;25.17;;
48263;SDS011;34086;51.076;13.722;2024-01-30T02:23:02;44.00;;;24.75;;
48263;SDS011;34086;51.076;13.722;2024-01-30T02:24:04;44.97;;;25.50;;
48263;SDS011;34086;51.076;13.722;2024-01-30T02:25:05;43.13;;;25.42;;
48263;SDS011;34086;51.076;13.722;2024-01-30T02:26:06;47.25;;;25.50;;
48263;SDS011;34086;51.076;13.722;2024-01-30T02:27:07;42.53;;;24.75;;
48263;SDS011;34086;51.076;13.722;2024-01-30T02:28:07;46.58;;;25.90;;
48263;SDS011;34086;51.076;13.722;2024-01-30T02:29:08;48.20;;;25.75;;
48263;SDS011;34086;51.076;13.722;2024-01-30T02:30:08;45.55;;;26.40;;
48263;SDS011;34086;51.076;13.722;2024-01-30T02:31:09;46.33;;;26.92;;
48263;SDS011;34086;51.076;13.722;2024-01-30T02:32:10;46.08;;;26.05;;
48263;SDS011;34086;51.076;13.722;2024-01-30T02:33:10;48.72;;;26.27;;
48263;SDS011;34086;51.076;13.722;2024-01-30T02:34:11;43.22;;;25.55;;
48263;SDS011;34086;51.076;13.722;2024-01-30T02:35:11;45.35;;;26.08;;
48263;SDS011;34086;51.076;13.722;2024-01-30T02:36:12;49.05;;;26.98;;
48263;SDS011;34086;51.076;13.722;2024-01-30T02:37:12;45.30;;;26.42;;
48263;SDS011;34086;51.076;13.722;2024-01-30T02:38:13;45.75;;;26.48;;
48263;SDS011;34086;51.076;13.722;2024-01-30T02:39:15;48.33;;;27.05;;
48263;SDS011;34086;51.076;13.722;2024-01-30T02:40:15;48.58;;;25.90;;
48263;SDS011;34086;51.076;13.722;2024-01-30T02:41:16;47.13;;;26.38;;
48263;SDS011;34086;51.076;13.722;2024-01-30T02:42:16;45.13;;;25.98;;
48263;SDS011;34086;51.076;13.722;2024-01-30T02:43:17;43.97;;;25.65;;
48263;SDS011;34086;51.076;13.722;2024-01-30T02:44:18;45.60;;;25.42;;
48263;SDS011;34086;51.076;13.722;2024-01-30T02:45:18;43.47;;;26.08;;
48263;SDS011;34086;51.076;13.722;2024-01-30T02:46:19;44.30;;;25.58;;
48263;SDS011;34086;51.076;13.722;2024-01-30T02:47:19;46.30;;;26.65;;
48263;SDS011;34086;51.076;13.722;2024-01-30T02:48:20;47.08;;;26.02;;
48263;SDS011;34086;51.076;13.722;2024-01-30T02:49:20;47.42;;;25.92;;
48263;SDS011;34086;51.076;13.722;2024-01-30T02:50:22;43.80;;;25.55;;
48263;SDS011;34086;51.076;13.722;2024-01-30T02:51:22;47.20;;;26.73;;
48263;SDS011;34086;51.076;13.722;2024-01-30T02:52:23;51.70;;;26.58;;
48263;SDS011;34086;51.076;13.722;2024-01-30T02:53:23;45.67;;;25.85;;
48263;SDS011;34086;51.076;13.722;2024-01-30T02:54:24;49.63;;;26.92;;
48263;SDS011;34086;51.076;13.722;2024-01-30T02:55:25;49.63;;;27.30;;
48263;SDS011;34086;51.076;13.722;2024-01-30T02:56:25;45.67;;;27.05;;
48263;SDS011;34086;51.076;13.722;2024-01-30T02:57:26;47.22;;;26.75;;
48263;SDS011;34086;51.076;13.722;2024-01-30T02:58:26;49.83;;;26.38;;
48263;SDS011;34086;51.076;13.722;2024-01-30T02:59:27;45.72;;;26.38;;
48263;SDS011;34086;51.076;13.722;2024-01-30T03:00:27;43.92;;;25.70;;
48263;SDS011;34086;51.076;13.722;2024-01-30T03:01:28;45.45;;;26.77;;
48263;SDS011;34086;51.076;13.722;2024-01-30T03:02:28;46.22;;;26.20;;
48263;SDS011;34086;51.076;13.722;2024-01-30T03:03:29;48.65;;;27.25;;
48263;SDS011;34086;51.076;13.722;2024-01-30T03:04:30;45.67;;;26.42;;
48263;SDS011;34086;51.076;13.722;2024-01-30T03:05:30;49.70;;;27.52;;
48263;SDS011;34086;51.076;13.722;2024-01-30T03:06:31;44.20;;;26.48;;
48263;SDS011;34086;51.076;13.722;2024-01-30T03:07:31;46.53;;;26.80;;
48263;SDS011;34086;51.076;13.722;2024-01-30T03:08:33;46.85;;;26.63;;
48263;SDS011;34086;51.076;13.722;2024-01-30T03:10:36;48.45;;;27.25;;
48263;SDS011;34086;51.076;13.722;2024-01-30T03:11:37;47.97;;;27.58;;
48263;SDS011;34086;51.076;13.722;2024-01-30T03:12:37;48.80;;;27.67;;
48263;SDS011;34086;51.076;13.722;2024-01-30T03:13:38;48.15;;;27.05;;
48263;SDS011;34086;51.076;13.722;2024-01-30T03:14:38;44.65;;;26.30;;
48263;SDS011;34086;51.076;13.722;2024-01-30T03:15:39;50.00;;;27.02;;
48263;SDS011;34086;51.076;13.722;2024-01-30T03:16:39;49.10;;;26.77;;
48263;SDS011;34086;51.076;13.722;2024-01-30T03:17:40;51.10;;;27.40;;
48263;SDS011;34086;51.076;13.722;2024-01-30T03:18:41;46.13;;;26.90;;
48263;SDS011;34086;51.076;13.722;2024-01-30T03:19:41;49.28;;;26.98;;
48263;SDS011;34086;51.076;13.722;2024-01-30T03:20:42;48.47;;;27.02;;
48263;SDS011;34086;51.076;13.722;2024-01-30T03:21:42;50.10;;;27.52;;
48263;SDS011;34086;51.076;13.722;2024-01-30T03:22:43;47.10;;;26.70;;
48263;SDS011;34086;51.076;13.722;2024-01-30T03:23:43;52.90;;;27.70;;
48263;SDS011;34086;51.076;13.722;2024-01-30T03:24:44;48.63;;;26.27;;
48263;SDS011;34086;51.076;13.722;2024-01-30T03:25:44;46.38;;;26.95;;
48263;SDS011;34086;51.076;13.722;2024-01-30T03:26:45;46.83;;;27.02;;
48263;SDS011;34086;51.076;13.722;2024-01-30T03:27:46;49.90;;;27.42;;
48263;SDS011;34086;51.076;13.722;2024-01-30T03:28:46;50.10;;;26.73;;
48263;SDS011;34086;51.076;13.722;2024-01-30T03:29:47;50.92;;;27.10;;
48263;SDS011;34086;51.076;13.722;2024-01-30T03:30:47;49.30;;;27.23;;
48263;SDS011;34086;51.076;13.722;2024-01-30T03:31:48;50.78;;;27.52;;
48263;SDS011;34086;51.076;13.722;2024-01-30T03:32:48;47.70;;;26.08;;
48263;SDS011;34086;51.076;13.722;2024-01-30T03:33:49;53.50;;;27.63;;
48263;SDS011;34086;51.076;13.722;2024-01-30T03:34:49;50.75;;;28.20;;
48263;SDS011;34086;51.076;13.722;2024-01-30T03:35:50;47.25;;;26.85;;
48263;SDS011;34086;51.076;13.722;2024-01-30T03:36:50;46.05;;;25.85;;
48263;SDS011;34086;51.076;13.722;2024-01-30T03:37:51;48.17;;;26.80;;
48263;SDS011;34086;51.076;13.722;2024-01-30T03:38:51;47.05;;;26.98;;
48263;SDS011;34086;51.076;13.722;2024-01-30T03:39:52;49.47;;;27.63;;
48263;SDS011;34086;51.076;13.722;2024-01-30T03:40:53;49.63;;;26.77;;
48263;SDS011;34086;51.076;13.722;2024-01-30T03:41:53;51.72;;;28.40;;
48263;SDS011;34086;51.076;13.722;2024-01-30T03:42:54;48.88;;;26.13;;
48263;SDS011;34086;51.076;13.722;2024-01-30T03:43:54;45.53;;;26.42;;
48263;SDS011;34086;51.076;13.722;2024-01-30T03:44:56;51.00;;;26.65;;
48263;SDS011;34086;51.076;13.722;2024-01-30T03:45:56;49.15;;;26.88;;
48263;SDS011;34086;51.076;13.722;2024-01-30T03:46:57;48.60;;;26.83;;
48263;SDS011;34086;51.076;13.722;2024-01-30T03:47:58;44.75;;;26.27;;
48263;SDS011;34086;51.076;13.722;2024-01-30T03:48:58;49.33;;;27.80;;
48263;SDS011;34086;51.076;13.722;2024-01-30T03:49:59;46.60;;;26.55;;
48263;SDS011;34086;51.076;13.722;2024-01-30T03:50:59;48.67;;;26.33;;
48263;SDS011;34086;51.076;13.722;2024-01-30T03:52:00;49.35;;;27.77;;
48263;SDS011;34086;51.076;13.722;2024-01-30T03:53:00;48.20;;;27.02;;
48263;SDS011;34086;51.076;13.722;2024-01-30T03:54:01;49.25;;;27.17;;
48263;SDS011;34086;51.076;13.722;2024-01-30T03:55:02;47.35;;;26.52;;
48263;SDS011;34086;51.076;13.722;2024-01-30T03:56:02;49.55;;;26.50;;
48263;SDS011;34086;51.076;13.722;2024-01-30T03:57:03;49.05;;;27.15;;
48263;SDS011;34086;51.076;13.722;2024-01-30T03:58:04;49.42;;;26.55;;
48263;SDS011;34086;51.076;13.722;2024-01-30T03:59:04;49.40;;;27.10;;
48263;SDS011;34086;51.076;13.722;2024-01-30T04:00:05;50.97;;;27.90;;
48263;SDS011;34086;51.076;13.722;2024-01-30T04:01:15;48.92;;;27.65;;
48263;SDS011;34086;51.076;13.722;2024-01-30T04:02:15;49.88;;;27.35;;
48263;SDS011;34086;51.076;13.722;2024-01-30T04:03:16;50.00;;;27.50;;
48263;SDS011;34086;51.076;13.722;2024-01-30T04:04:17;55.20;;;28.75;;
48263;SDS011;34086;51.076;13.722;2024-01-30T04:05:18;49.38;;;28.15;;
48263;SDS011;34086;51.076;13.722;2024-01-30T04:06:19;50.70;;;28.15;;
48263;SDS011;34086;51.076;13.722;2024-01-30T04:07:19;51.42;;;28.05;;
48263;SDS011;34086;51.076;13.722;2024-01-30T04:08:20;52.45;;;27.92;;
48263;SDS011;34086;51.076;13.722;2024-01-30T04:09:21;50.60;;;28.05;;
48263;SDS011;34086;51.076;13.722;2024-01-30T04:10:21;57.88;;;28.92;;
48263;SDS011;34086;51.076;13.722;2024-01-30T04:11:22;49.28;;;26.77;;
48263;SDS011;34086;51.076;13.722;2024-01-30T04:12:22;52.85;;;27.50;;
48263;SDS011;34086;51.076;13.722;2024-01-30T04:13:23;50.00;;;27.10;;
48263;SDS011;34086;51.076;13.722;2024-01-30T04:14:23;53.45;;;27.75;;
48263;SDS011;34086;51.076;13.722;2024-01-30T04:15:24;50.22;;;26.88;;
48263;SDS011;34086;51.076;13.722;2024-01-30T04:16:25;68.47;;;32.83;;
48263;SDS011;34086;51.076;13.722;2024-01-30T04:17:25;56.67;;;29.33;;
48263;SDS011;34086;51.076;13.722;2024-01-30T04:18:26;60.40;;;30.42;;
48263;SDS011;34086;51.076;13.722;2024-01-30T04:19:26;56.33;;;29.05;;
48263;SDS011;34086;51.076;13.722;2024-01-30T04:20:27;54.55;;;27.60;;
48263;SDS011;34086;51.076;13.722;2024-01-30T04:21:27;55.75;;;29.02;;
48263;SDS011;34086;51.076;13.722;2024-01-30T04:22:28;55.85;;;29.38;;
48263;SDS011;34086;51.076;13.722;2024-01-30T04:23:28;49.00;;;25.90;;
48263;SDS011;34086;51.076;13.722;2024-01-30T04:24:29;52.20;;;27.45;;
48263;SDS011;34086;51.076;13.722;2024-01-30T04:25:29;53.35;;;28.17;;
48263;SDS011;34086;51.076;13.722;2024-01-30T04:26:30;54.08;;;28.85;;
48263;SDS011;34086;51.076;13.722;2024-01-30T04:27:30;51.13;;;27.13;;
48263;SDS011;34086;51.076;13.722;2024-01-30T04:28:31;49.28;;;27.63;;
48263;SDS011;34086;51.076;13.722;2024-01-30T04:29:31;55.25;;;28.45;;
48263;SDS011;34086;51.076;13.722;2024-01-30T04:30:33;54.83;;;28.55;;
48263;SDS011;34086;51.076;13.722;2024-01-30T04:31:35;59.25;;;29.13;;
48263;SDS011;34086;51.076;13.722;2024-01-30T04:32:36;70.78;;;33.25;;
48263;SDS011;34086;51.076;13.722;2024-01-30T04:33:37;73.15;;;34.25;;
48263;SDS011;34086;51.076;13.722;2024-01-30T04:34:37;55.55;;;29.10;;
48263;SDS011;34086;51.076;13.722;2024-01-30T04:35:38;55.60;;;29.40;;
48263;SDS011;34086;51.076;13.722;2024-01-30T04:36:38;74.63;;;35.67;;
48263;SDS011;34086;51.076;13.722;2024-01-30T04:37:39;61.50;;;30.92;;
48263;SDS011;34086;51.076;13.722;2024-01-30T04:38:40;57.30;;;29.50;;
48263;SDS011;34086;51.076;13.722;2024-01-30T04:39:40;50.92;;;27.73;;
48263;SDS011;34086;51.076;13.722;2024-01-30T04:40:41;50.67;;;27.20;;
48263;SDS011;34086;51.076;13.722;2024-01-30T04:41:41;50.67;;;27.40;;
48263;SDS011;34086;51.076;13.722;2024-01-30T04:42:42;61.78;;;30.85;;
48263;SDS011;34086;51.076;13.722;2024-01-30T04:43:42;68.90;;;33.25;;
48263;SDS011;34086;51.076;13.722;2024-01-30T04:44:43;57.45;;;29.38;;
48263;SDS011;34086;51.076;13.722;2024-01-30T04:45:43;56.65;;;28.67;;
48263;SDS011;34086;51.076;13.722;2024-01-30T04:46:44;56.72;;;29.67;;
48263;SDS011;34086;51.076;13.722;2024-01-30T04:47:45;53.28;;;28.27;;
48263;SDS011;34086;51.076;13.722;2024-01-30T04:48:46;54.72;;;29.85;;
48263;SDS011;34086;51.076;13.722;2024-01-30T04:49:46;50.42;;;28.30;;
48263;SDS011;34086;51.076;13.722;2024-01-30T04:50:47;50.00;;;26.92;;
48263;SDS011;34086;51.076;13.722;2024-01-30T04:51:47;54.95;;;29.17;;
48263;SDS011;34086;51.076;13.722;2024-01-30T04:52:48;54.05;;;29.90;;
48263;SDS011;34086;51.076;13.722;2024-01-30T04:53:48;57.92;;;30.30;;
48263;SDS011;34086;51.076;13.722;2024-01-30T04:54:49;67.60;;;32.63;;
48263;SDS011;34086;51.076;13.722;2024-01-30T04:55:49;49.20;;;27.67;;
48263;SDS011;34086;51.076;13.722;2024-01-30T04:56:50;53.47;;;27.15;;
48263;SDS011;34086;51.076;13.722;2024-01-30T04:57:50;67.47;;;32.45;;
48263;SDS011;34086;51.076;13.722;2024-01-30T04:58:51;77.18;;;29.60;;
48263;SDS011;34086;51.076;13.722;2024-01-30T04:59:52;60.67;;;30.33;;
48263;SDS011;34086;51.076;13.722;2024-01-30T05:00:52;87.00;;;31.25;;
48263;SDS011;34086;51.076;13.722;2024-01-30T05:01:53;72.82;;;31.20;;
48263;SDS011;34086;51.076;13.722;2024-01-30T05:02:56;59.15;;;28.55;;
48263;SDS011;34086;51.076;13.722;2024-01-30T05:03:57;54.08;;;28.38;;
48263;SDS011;34086;51.076;13.722;2024-01-30T05:04:57;54.33;;;27.58;;
48263;SDS011;34086;51.076;13.722;2024-01-30T05:05:58;49.47;;;27.30;;
48263;SDS011;34086;51.076;13.722;2024-01-30T05:06:59;52.10;;;27.95;;
48263;SDS011;34086;51.076;13.722;2024-01-30T05:07:59;59.47;;;30.70;;
48263;SDS011;34086;51.076;13.722;2024-01-30T05:09:00;61.50;;;31.40;;
48263;SDS011;34086;51.076;13.722;2024-01-30T05:10:01;54.95;;;28.35;;
48263;SDS011;34086;51.076;13.722;2024-01-30T05:11:01;61.95;;;31.33;;
48263;SDS011;34086;51.076;13.722;2024-01-30T05:12:03;58.25;;;29.65;;
48263;SDS011;34086;51.076;13.722;2024-01-30T05:13:04;53.17;;;28.63;;
48263;SDS011;34086;51.076;13.722;2024-01-30T05:14:05;49.75;;;27.38;;
48263;SDS011;34086;51.076;13.722;2024-01-30T05:15:06;51.67;;;27.55;;
48263;SDS011;34086;51.076;13.722;2024-01-30T05:16:07;54.15;;;28.55;;
48263;SDS011;34086;51.076;13.722;2024-01-30T05:17:08;57.60;;;28.50;;
48263;SDS011;34086;51.076;13.722;2024-01-30T05:18:10;52.53;;;28.02;;
48263;SDS011;34086;51.076;13.722;2024-01-30T05:19:10;50.53;;;28.25;;
48263;SDS011;34086;51.076;13.722;2024-01-30T05:20:11;51.67;;;28.02;;
48263;SDS011;34086;51.076;13.722;2024-01-30T05:21:12;47.63;;;26.95;;
48263;SDS011;34086;51.076;13.722;2024-01-30T05:22:12;48.40;;;27.33;;
48263;SDS011;34086;51.076;13.722;2024-01-30T05:23:18;62.83;;;31.52;;
48263;SDS011;34086;51.076;13.722;2024-01-30T05:24:18;49.78;;;26.63;;
48263;SDS011;34086;51.076;13.722;2024-01-30T05:25:19;51.15;;;27.92;;
48263;SDS011;34086;51.076;13.722;2024-01-30T05:26:19;50.08;;;26.98;;
48263;SDS011;34086;51.076;13.722;2024-01-30T05:27:20;55.03;;;29.33;;
48263;SDS011;34086;51.076;13.722;2024-01-30T05:28:20;52.97;;;29.75;;
48263;SDS011;34086;51.076;13.722;2024-01-30T05:29:21;58.72;;;31.17;;
48263;SDS011;34086;51.076;13.722;2024-01-30T05:30:22;62.30;;;30.48;;
48263;SDS011;34086;51.076;13.722;2024-01-30T05:31:22;56.47;;;29.90;;
48263;SDS011;34086;51.076;13.722;2024-01-30T05:32:23;51.40;;;28.08;;
48263;SDS011;34086;51.076;13.722;2024-01-30T05:33:23;52.35;;;29.15;;
48263;SDS011;34086;51.076;13.722;2024-01-30T05:34:24;48.35;;;26.20;;
48263;SDS011;34086;51.076;13.722;2024-01-30T05:35:24;57.97;;;31.80;;
48263;SDS011;34086;51.076;13.722;2024-01-30T05:36:25;55.05;;;29.88;;
48263;SDS011;34086;51.076;13.722;2024-01-30T05:37:26;69.93;;;37.03;;
48263;SDS011;34086;51.076;13.722;2024-01-30T05:38:26;55.13;;;28.65;;
48263;SDS011;34086;51.076;13.722;2024-01-30T05:39:27;50.53;;;27.70;;
48263;SDS011;34086;51.076;13.722;2024-01-30T05:40:27;52.22;;;27.92;;
48263;SDS011;34086;51.076;13.722;2024-01-30T05:41:28;57.17;;;29.85;;
48263;SDS011;34086;51.076;13.722;2024-01-30T05:42:29;52.03;;;28.45;;
48263;SDS011;34086;51.076;13.722;2024-01-30T05:43:29;50.47;;;27.67;;
48263;SDS011;34086;51.076;13.722;2024-01-30T05:44:30;51.00;;;28.08;;
48263;SDS011;34086;51.076;13.722;2024-01-30T05:45:31;49.78;;;26.42;;
48263;SDS011;34086;51.076;13.722;2024-01-30T05:46:31;56.05;;;29.30;;
48263;SDS011;34086;51.076;13.722;2024-01-30T05:47:33;50.20;;;27.88;;
48263;SDS011;34086;51.076;13.722;2024-01-30T05:48:34;67.30;;;32.33;;
48263;SDS011;34086;51.076;13.722;2024-01-30T05:49:35;57.63;;;30.42;;
48263;SDS011;34086;51.076;13.722;2024-01-30T05:50:36;59.30;;;30.58;;
48263;SDS011;34086;51.076;13.722;2024-01-30T05:51:37;53.05;;;28.75;;